createdAt,value
2022-09-28T00:00:24.265Z,6.9
2022-09-28T00:05:24.339Z,6.9
2022-09-28T00:10:24.393Z,6.9
2022-09-28T00:15:30.721Z,6.9
2022-09-28T00:30:42.827Z,7
2022-09-28T00:50:24.910Z,7
2022-09-28T00:55:24.641Z,7
2022-09-28T01:00:24.466Z,7
2022-09-28T01:05:24.375Z,6.9
2022-09-28T01:10:24.398Z,6.9
2022-09-28T01:15:24.303Z,6.9
2022-09-28T01:20:24.428Z,6.9
2022-09-28T01:25:24.289Z,7
2022-09-28T01:30:24.328Z,7
2022-09-28T01:35:24.462Z,7
2022-09-28T01:40:24.396Z,6.9
2022-09-28T01:45:24.268Z,6.9
2022-09-28T01:50:24.376Z,6.9
2022-09-28T01:55:24.338Z,6.8
2022-09-28T02:00:24.293Z,6.9
2022-09-28T02:05:24.350Z,6.9
2022-09-28T02:10:24.300Z,6.8
2022-09-28T02:15:24.324Z,6.8
2022-09-28T02:20:24.362Z,6.9
2022-09-28T02:25:24.626Z,6.8
2022-09-28T02:30:24.347Z,6.8
2022-09-28T02:35:24.397Z,6.8
2022-09-28T02:40:24.464Z,6.8
2022-09-28T02:45:24.516Z,6.8
2022-09-28T02:50:24.295Z,6.8
2022-09-28T02:55:24.303Z,6.8
2022-09-28T03:00:24.274Z,6.7
2022-09-28T03:05:24.303Z,6.8
2022-09-28T03:10:24.292Z,6.8
2022-09-28T03:15:24.289Z,6.7
2022-09-28T03:20:28.786Z,6.8
2022-09-28T03:25:24.418Z,6.9
2022-09-28T03:30:24.387Z,6.8
2022-09-28T03:35:24.387Z,6.8
2022-09-28T03:40:24.463Z,6.9
2022-09-28T03:45:24.296Z,6.8
2022-09-28T03:50:24.535Z,6.9
2022-09-28T03:55:24.419Z,6.9
2022-09-28T04:00:24.663Z,6.9
2022-09-28T04:05:24.426Z,6.9
2022-09-28T04:10:24.416Z,6.9
2022-09-28T04:25:24.404Z,7
2022-09-28T04:30:24.295Z,7.1
2022-09-28T04:35:24.282Z,7.2
2022-09-28T04:40:24.313Z,7.1
2022-09-28T04:45:24.464Z,7
2022-09-28T04:50:24.295Z,7.1
2022-09-28T04:55:24.312Z,7.2
2022-09-28T05:00:24.275Z,7.2
2022-09-28T05:05:24.555Z,7.3
2022-09-28T05:10:24.331Z,7.3
2022-09-28T05:15:24.324Z,7.2
2022-09-28T05:20:24.503Z,7.2
2022-09-28T05:25:24.316Z,7.3
2022-09-28T05:30:24.418Z,7.4
2022-09-28T05:35:24.322Z,7.4
2022-09-28T05:40:37.069Z,7.4
2022-09-28T05:45:34.457Z,7.4
2022-09-28T05:50:24.993Z,7.5
2022-09-28T05:55:25.300Z,7.6
2022-09-28T06:00:24.776Z,7.6
2022-09-28T06:05:24.623Z,7.6
2022-09-28T06:10:28.759Z,7.6
2022-09-28T06:15:31.987Z,7.6
2022-09-28T06:20:24.613Z,7.6
2022-09-28T06:25:24.549Z,7.7
2022-09-28T06:30:24.568Z,7.8
2022-09-28T06:35:24.372Z,7.9
2022-09-28T06:40:24.698Z,8
2022-09-28T06:45:24.407Z,8.1
2022-09-28T06:50:24.364Z,8.1
2022-09-28T06:55:24.395Z,8.1
2022-09-28T07:00:24.572Z,8.2
2022-09-28T07:05:24.414Z,8.1
2022-09-28T07:10:48.803Z,8.1
2022-09-28T07:15:24.463Z,8.2
2022-09-28T07:20:24.790Z,8.4
2022-09-28T07:26:24.290Z,8.3
2022-09-28T07:30:25.875Z,8.3
2022-09-28T07:35:25.057Z,8.4
2022-09-28T07:40:25.117Z,8.3
2022-09-28T07:45:25.182Z,8.4
2022-09-28T07:50:24.872Z,8.4
2022-09-28T07:55:26.857Z,8.4
2022-09-28T08:00:24.633Z,8.5
2022-09-28T08:05:32.829Z,8.4
2022-09-28T08:10:25.397Z,8.5
2022-09-28T08:15:24.691Z,8.8
2022-09-28T08:20:24.839Z,8.8
2022-09-28T08:25:25.273Z,8.9
2022-09-28T08:30:24.822Z,9.1
2022-09-28T08:35:24.757Z,9.4
2022-09-28T08:40:25.136Z,9.6
2022-09-28T08:45:32.217Z,10.2
2022-09-28T08:50:25.060Z,10.1
2022-09-28T08:55:25.905Z,9.8
2022-09-28T09:00:24.852Z,9.9
2022-09-28T09:05:27.820Z,10.4
2022-09-28T09:10:24.951Z,10.6
2022-09-28T09:15:24.645Z,11.1
2022-09-28T09:25:24.665Z,10.8
2022-09-28T09:30:25.418Z,10.5
2022-09-28T09:45:38.731Z,9.3
2022-09-28T09:50:24.459Z,9.4
2022-09-28T09:55:28.856Z,9.3
2022-09-28T10:00:24.463Z,9
2022-09-28T10:05:24.507Z,8.9
2022-09-28T10:10:24.483Z,8.9
2022-09-28T10:15:24.616Z,9.3
2022-09-28T10:20:24.839Z,9.3
2022-09-28T10:25:24.725Z,8.6
2022-09-28T10:30:25.858Z,8.6
2022-09-28T10:35:24.530Z,8.8
2022-09-28T10:40:24.532Z,8.5
2022-09-28T10:45:24.566Z,8.6
2022-09-28T10:50:25.541Z,8.6
2022-09-28T10:55:25.498Z,9
2022-09-28T11:00:24.760Z,9.9
2022-09-28T11:05:24.896Z,10.3
2022-09-28T11:10:24.655Z,10.5
2022-09-28T11:15:24.615Z,10.7
2022-09-28T11:20:26.962Z,11.6
2022-09-28T11:25:24.632Z,11.5
2022-09-28T11:30:24.591Z,12.4
2022-09-28T11:40:24.652Z,11.8
2022-09-28T12:00:24.577Z,12.7
2022-09-28T12:05:25.043Z,11.9
2022-09-28T12:10:24.690Z,11.2
2022-09-28T12:15:25.006Z,10.6
2022-09-28T12:20:25.084Z,10.4
2022-09-28T12:25:38.797Z,11.6
2022-09-28T12:30:24.788Z,12.1
2022-09-28T12:40:34.484Z,11.4
2022-09-28T12:47:41.991Z,12.1
2022-09-28T12:55:24.783Z,11.5
2022-09-28T13:00:24.905Z,11.4
2022-09-28T13:05:25.173Z,11.6
2022-09-28T13:10:24.767Z,12.2
2022-09-28T13:15:24.463Z,12.4
2022-09-28T13:20:24.485Z,12.8
2022-09-28T13:25:26.310Z,12.4
2022-09-28T13:31:06.840Z,12.4
2022-09-28T13:35:24.797Z,11.9
2022-09-28T13:41:00.508Z,11.6
2022-09-28T13:49:36.560Z,11.3
2022-09-28T13:50:29.050Z,11.1
2022-09-28T13:55:25.555Z,11
2022-09-28T14:05:24.894Z,10.8
2022-09-28T14:10:24.532Z,11.1
2022-09-28T14:15:24.585Z,11.4
2022-09-28T14:20:24.482Z,11.5
2022-09-28T14:25:24.562Z,11.4
2022-09-28T14:30:24.455Z,11.3
2022-09-28T14:35:24.674Z,11.1
2022-09-28T14:40:24.623Z,10.9
2022-09-28T14:45:24.919Z,10.7
2022-09-28T14:50:24.542Z,10.6
2022-09-28T14:55:24.573Z,10.4
2022-09-28T15:00:24.479Z,10.1
2022-09-28T15:05:24.659Z,9.8
2022-09-28T15:10:27.611Z,9.6
2022-09-28T15:15:24.549Z,9.5
2022-09-28T15:20:24.782Z,9.6
2022-09-28T15:25:24.590Z,9.5
2022-09-28T15:30:24.590Z,9.7
2022-09-28T15:35:25.035Z,10.1
2022-09-28T15:40:24.689Z,10.1
2022-09-28T15:45:24.553Z,9.9
2022-09-28T15:50:24.521Z,9.9
2022-09-28T15:55:24.797Z,9.8
2022-09-28T16:00:24.506Z,9.8
2022-09-28T16:05:24.682Z,9.8
2022-09-28T16:10:25.499Z,9.8
2022-09-28T16:15:24.630Z,9.8
2022-09-28T16:20:24.825Z,9.7
2022-09-28T16:25:24.633Z,9.8
2022-09-28T16:30:24.555Z,9.6
2022-09-28T16:35:24.642Z,9.4
2022-09-28T16:40:24.749Z,9.3
2022-09-28T16:45:24.630Z,9.1
2022-09-28T16:50:24.658Z,8.9
2022-09-28T17:00:24.620Z,8.6
2022-09-28T17:05:24.637Z,8.6
2022-09-28T17:10:24.616Z,8.4
2022-09-28T17:15:24.759Z,8.5
2022-09-28T17:20:24.766Z,8.4
2022-09-28T17:25:24.598Z,8.4
2022-09-28T17:30:25.755Z,8.4
2022-09-28T17:35:25.705Z,8.3
2022-09-28T17:40:24.842Z,8.3
2022-09-28T17:45:24.543Z,8.3
2022-09-28T17:50:24.655Z,8.3
2022-09-28T17:55:24.610Z,8.2
2022-09-28T18:00:24.548Z,8.3
2022-09-28T18:05:24.547Z,8.2
2022-09-28T18:10:24.592Z,8.3
2022-09-28T18:15:24.491Z,8.2
2022-09-28T18:20:24.547Z,8
2022-09-28T18:25:24.598Z,7.9
2022-09-28T18:30:24.509Z,7.9
2022-09-28T18:35:24.748Z,7.8
2022-09-28T18:40:24.710Z,7.6
2022-09-28T18:45:24.612Z,7.5
2022-09-28T18:50:24.639Z,7.4
2022-09-28T18:55:24.555Z,7.3
2022-09-28T19:00:24.693Z,7.3
2022-09-28T19:05:24.571Z,7.1
2022-09-28T19:10:24.634Z,7
2022-09-28T19:15:24.595Z,6.9
2022-09-28T19:20:24.623Z,6.9
2022-09-28T19:25:24.766Z,6.8
2022-09-28T19:30:24.654Z,6.8
2022-09-28T19:35:24.718Z,6.8
2022-09-28T19:40:24.934Z,6.8
2022-09-28T19:45:24.655Z,6.8
2022-09-28T19:50:24.704Z,6.8
2022-09-28T19:55:24.581Z,6.6
2022-09-28T20:00:24.602Z,6.5
2022-09-28T20:05:24.573Z,6.4
2022-09-28T20:10:24.629Z,6.4
2022-09-28T20:15:24.940Z,6.3
2022-09-28T20:20:24.608Z,6.3
2022-09-28T20:25:24.725Z,6.3
2022-09-28T20:30:24.482Z,6.3
2022-09-28T20:35:32.537Z,6.4
2022-09-28T20:40:24.728Z,6.4
2022-09-28T20:45:32.664Z,6.4
2022-09-28T20:50:24.676Z,6.3
2022-09-28T20:55:24.542Z,6.3
2022-09-28T21:00:24.602Z,6.2
2022-09-28T21:05:28.280Z,6.1
2022-09-28T21:10:28.410Z,6
2022-09-28T21:15:24.629Z,5.9
2022-09-28T21:20:24.565Z,5.9
2022-09-28T21:25:24.960Z,5.8
2022-09-28T21:30:24.576Z,5.7
2022-09-28T21:35:24.636Z,5.7
2022-09-28T21:40:24.683Z,5.6
2022-09-28T21:45:24.677Z,5.5
2022-09-28T21:50:24.549Z,5.4
2022-09-28T21:55:24.641Z,5.3
2022-09-28T22:00:24.549Z,5.3
2022-09-28T22:05:24.682Z,5.2
2022-09-28T22:10:27.294Z,5.2
2022-09-28T22:15:24.928Z,5.3
2022-09-28T22:20:24.732Z,5.3
2022-09-28T22:25:35.891Z,5.2
2022-09-28T22:30:24.545Z,5.1
2022-09-28T22:35:24.649Z,5.1
2022-09-28T22:40:24.747Z,5.2
2022-09-28T22:45:24.696Z,5.1
2022-09-28T22:50:24.608Z,5.1
2022-09-28T22:55:24.933Z,5
2022-09-28T23:00:24.561Z,5
2022-09-28T23:05:24.742Z,5.1
2022-09-28T23:10:24.701Z,5.2
2022-09-28T23:15:24.583Z,5.1
2022-09-28T23:20:24.673Z,5.2
2022-09-28T23:25:24.663Z,5.4
2022-09-28T23:35:24.612Z,5.4
2022-09-28T23:40:24.847Z,5.5
2022-09-28T23:45:24.654Z,5.6
2022-09-28T23:50:24.651Z,5.6
2022-09-28T23:55:24.644Z,5.6
